createdAt,value
2022-10-28T00:00:46.776Z,59.53
2022-10-28T00:03:13.582Z,59.55
2022-10-28T00:05:40.402Z,59.96
2022-10-28T00:08:07.168Z,59.46
2022-10-28T00:10:33.984Z,59.41
2022-10-28T00:13:00.918Z,59.57
2022-10-28T00:15:27.726Z,60.47
2022-10-28T00:17:54.596Z,59.89
2022-10-28T00:20:21.631Z,60.08
2022-10-28T00:22:48.405Z,60.43
2022-10-28T00:25:15.220Z,60.52
2022-10-28T00:27:42.033Z,60.39
2022-10-28T00:30:09.124Z,60.58
2022-10-28T00:32:35.827Z,60.45
2022-10-28T00:35:02.578Z,60.42
2022-10-28T00:37:29.269Z,60.08
2022-10-28T00:39:55.978Z,60.03
2022-10-28T00:42:22.892Z,60.95
2022-10-28T00:45:03.669Z,60.58
2022-10-28T00:47:40.006Z,60.69
2022-10-28T00:50:38.329Z,60.75
2022-10-28T00:53:14.082Z,60.71
2022-10-28T00:55:43.211Z,61.10
2022-10-28T00:58:11.235Z,60.96
2022-10-28T01:00:38.304Z,61.09
2022-10-28T01:03:05.225Z,61.23
2022-10-28T01:05:35.964Z,61.29
2022-10-28T01:08:04.753Z,61.28
2022-10-28T01:11:09.696Z,61.66
2022-10-28T01:13:55.326Z,61.27
2022-10-28T01:16:24.705Z,61.05
2022-10-28T01:19:09.064Z,61.19
2022-10-28T01:21:54.670Z,61.30
2022-10-28T01:24:30.575Z,61.25
2022-10-28T01:27:29.805Z,61.38
2022-10-28T01:29:59.635Z,61.07
2022-10-28T01:33:01.477Z,61.34
2022-10-28T01:35:53.033Z,60.88
2022-10-28T01:38:32.930Z,61.31
2022-10-28T01:41:16.164Z,61.40
2022-10-28T01:44:24.818Z,61.15
2022-10-28T01:47:17.737Z,60.80
2022-10-28T01:50:05.190Z,60.57
2022-10-28T01:52:32.948Z,61.19
2022-10-28T01:55:10.819Z,60.86
2022-10-28T01:57:41.221Z,61.03
2022-10-28T02:00:09.164Z,60.87
2022-10-28T02:02:38.070Z,61.04
2022-10-28T02:05:34.116Z,60.76
2022-10-28T02:08:10.834Z,61.52
2022-10-28T02:10:47.639Z,61.34
2022-10-28T02:13:15.449Z,60.85
2022-10-28T02:15:51.020Z,60.80
2022-10-28T02:18:56.141Z,60.58
2022-10-28T02:21:35.225Z,61.08
2022-10-28T02:24:08.045Z,61.16
2022-10-28T02:26:43.047Z,61.31
2022-10-28T02:29:27.498Z,60.95
2022-10-28T02:31:58.793Z,60.79
2022-10-28T02:34:33.745Z,60.78
2022-10-28T02:37:07.142Z,61.20
2022-10-28T02:39:40.244Z,61.25
2022-10-28T02:42:12.758Z,60.93
2022-10-28T02:44:44.746Z,60.19
2022-10-28T02:47:17.756Z,60.30
2022-10-28T02:49:48.912Z,60.41
2022-10-28T02:52:17.418Z,61.09
2022-10-28T02:54:54.339Z,60.95
2022-10-28T02:57:24.729Z,60.81
2022-10-28T02:59:57.559Z,61.31
2022-10-28T03:02:25.425Z,60.90
2022-10-28T03:04:52.589Z,61.18
2022-10-28T03:07:19.690Z,61.08
2022-10-28T03:09:46.553Z,61.42
2022-10-28T03:12:13.311Z,61.17
2022-10-28T03:14:40.054Z,61.61
2022-10-28T03:17:06.799Z,62.01
2022-10-28T03:19:33.936Z,61.94
2022-10-28T03:22:00.707Z,61.68
2022-10-28T03:24:27.640Z,61.34
2022-10-28T03:26:54.385Z,61.41
2022-10-28T03:29:21.114Z,60.97
2022-10-28T03:31:47.903Z,61.00
2022-10-28T03:34:14.680Z,61.44
2022-10-28T03:36:41.412Z,61.55
2022-10-28T03:39:08.254Z,61.68
2022-10-28T03:41:34.998Z,61.26
2022-10-28T03:44:01.808Z,60.96
2022-10-28T03:46:30.109Z,60.62
2022-10-28T03:49:03.022Z,60.80
2022-10-28T03:51:29.952Z,60.79
2022-10-28T03:53:56.661Z,60.75
2022-10-28T03:56:23.450Z,60.64
2022-10-28T03:58:50.649Z,60.44
2022-10-28T04:01:17.533Z,60.29
2022-10-28T04:03:44.289Z,60.99
2022-10-28T04:06:11.043Z,61.10
2022-10-28T04:08:38.159Z,60.94
2022-10-28T04:11:05.119Z,60.64
2022-10-28T04:13:31.894Z,61.81
2022-10-28T04:15:58.574Z,61.34
2022-10-28T04:18:25.288Z,61.44
2022-10-28T04:20:52.080Z,61.06
2022-10-28T04:23:18.969Z,60.65
2022-10-28T04:25:45.877Z,59.59
2022-10-28T04:28:17.253Z,59.34
2022-10-28T04:30:47.558Z,59.23
2022-10-28T04:33:14.509Z,58.90
2022-10-28T04:35:41.281Z,58.86
2022-10-28T04:38:07.971Z,59.00
2022-10-28T04:40:34.689Z,58.71
2022-10-28T04:43:01.554Z,58.04
2022-10-28T04:45:28.359Z,58.62
2022-10-28T04:47:59.683Z,58.14
2022-10-28T04:50:27.417Z,58.40
2022-10-28T04:52:54.378Z,58.21
2022-10-28T04:55:21.672Z,58.41
2022-10-28T04:57:56.436Z,57.72
2022-10-28T05:00:24.437Z,57.75
2022-10-28T05:02:51.231Z,57.85
2022-10-28T05:05:18.793Z,57.20
2022-10-28T05:07:46.317Z,57.08
2022-10-28T05:10:14.256Z,56.95
2022-10-28T05:12:44.261Z,57.26
2022-10-28T05:15:12.181Z,56.93
2022-10-28T05:17:44.761Z,56.33
2022-10-28T05:20:13.161Z,56.19
2022-10-28T05:22:45.868Z,56.11
2022-10-28T05:25:12.687Z,56.39
2022-10-28T05:27:39.589Z,55.76
2022-10-28T05:30:07.167Z,55.54
2022-10-28T05:32:33.888Z,55.28
2022-10-28T05:35:00.770Z,54.59
2022-10-28T05:37:27.487Z,55.42
2022-10-28T05:39:54.175Z,56.72
2022-10-28T05:42:21.173Z,55.53
2022-10-28T05:44:47.920Z,56.43
2022-10-28T05:47:14.668Z,55.56
2022-10-28T05:49:41.413Z,55.58
2022-10-28T05:52:08.133Z,55.26
2022-10-28T05:54:34.821Z,55.48
2022-10-28T05:57:01.579Z,55.53
2022-10-28T05:59:28.409Z,55.03
2022-10-28T06:01:55.117Z,55.89
2022-10-28T06:04:21.953Z,55.73
2022-10-28T06:06:48.714Z,55.81
2022-10-28T06:09:15.364Z,55.34
2022-10-28T06:11:40.658Z,55.83
2022-10-28T06:14:07.509Z,56.19
2022-10-28T06:16:34.241Z,56.96
2022-10-28T06:19:01.051Z,57.47
2022-10-28T06:21:27.815Z,57.48
2022-10-28T06:23:54.530Z,58.52
2022-10-28T06:26:21.264Z,58.41
2022-10-28T06:28:48.043Z,58.71
2022-10-28T06:31:14.786Z,58.30
2022-10-28T06:33:41.596Z,58.92
2022-10-28T06:36:08.534Z,59.25
2022-10-28T06:38:35.236Z,58.70
2022-10-28T06:41:02.458Z,59.31
2022-10-28T06:43:29.236Z,59.26
2022-10-28T06:46:00.476Z,59.44
2022-10-28T06:48:28.811Z,59.43
2022-10-28T06:50:56.273Z,59.25
2022-10-28T06:53:23.052Z,58.90
2022-10-28T06:55:57.643Z,59.17
2022-10-28T06:58:25.838Z,58.20
2022-10-28T07:00:53.155Z,58.38
2022-10-28T07:03:20.125Z,58.19
2022-10-28T07:05:48.185Z,58.50
2022-10-28T07:08:15.581Z,57.33
2022-10-28T07:10:42.492Z,56.41
2022-10-28T07:13:09.263Z,56.99
2022-10-28T07:15:35.964Z,57.41
2022-10-28T07:18:02.834Z,56.73
2022-10-28T07:20:29.601Z,56.44
2022-10-28T07:23:02.743Z,56.04
2022-10-28T07:25:30.896Z,55.23
2022-10-28T07:27:59.250Z,54.91
2022-10-28T07:30:27.622Z,54.96
2022-10-28T07:32:54.941Z,54.48
2022-10-28T07:35:21.849Z,53.58
2022-10-28T07:37:48.685Z,53.84
2022-10-28T07:40:15.562Z,55.03
2022-10-28T07:42:42.383Z,55.21
2022-10-28T07:45:10.769Z,54.47
2022-10-28T07:47:37.481Z,55.17
2022-10-28T07:50:06.251Z,54.77
2022-10-28T07:52:34.027Z,54.02
2022-10-28T07:55:00.810Z,53.70
2022-10-28T07:57:27.622Z,53.36
2022-10-28T07:59:54.448Z,51.54
2022-10-28T08:02:23.582Z,52.36
2022-10-28T08:04:50.745Z,51.61
2022-10-28T08:07:18.363Z,50.81
2022-10-28T08:09:45.198Z,50.06
2022-10-28T08:12:15.947Z,48.69
2022-10-28T08:14:42.818Z,48.98
2022-10-28T08:17:09.753Z,47.22
2022-10-28T08:19:36.515Z,45.42
2022-10-28T08:22:03.586Z,46.36
2022-10-28T08:24:30.407Z,47.10
2022-10-28T08:26:57.194Z,46.50
2022-10-28T08:29:27.717Z,48.74
2022-10-28T08:31:56.900Z,50.27
2022-10-28T08:34:23.669Z,50.63
2022-10-28T08:36:50.470Z,49.71
2022-10-28T08:39:17.286Z,49.17
2022-10-28T08:41:52.006Z,49.61
2022-10-28T08:44:27.367Z,48.37
2022-10-28T08:47:21.508Z,48.25
2022-10-28T08:49:54.209Z,49.42
2022-10-28T08:53:01.758Z,50.01
2022-10-28T08:55:34.225Z,49.51
2022-10-28T08:58:24.004Z,48.15
2022-10-28T09:00:56.222Z,48.54
2022-10-28T09:03:26.692Z,48.34
2022-10-28T09:06:01.554Z,47.63
2022-10-28T09:08:30.781Z,47.91
2022-10-28T09:11:36.411Z,45.91
2022-10-28T09:14:45.809Z,46.94
2022-10-28T09:17:18.665Z,42.87
2022-10-28T09:20:00.269Z,44.08
2022-10-28T09:22:47.232Z,45.22
2022-10-28T09:25:13.975Z,46.51
2022-10-28T09:27:48.447Z,45.39
2022-10-28T09:30:26.863Z,45.57
2022-10-28T09:33:31.025Z,45.07
2022-10-28T09:35:58.681Z,45.31
2022-10-28T09:38:30.466Z,44.62
2022-10-28T09:41:06.763Z,43.55
2022-10-28T09:43:36.142Z,44.66
2022-10-28T09:46:11.188Z,44.36
2022-10-28T09:48:41.948Z,44.33
2022-10-28T09:51:24.760Z,43.02
2022-10-28T09:53:57.527Z,42.43
2022-10-28T09:56:26.068Z,43.78
2022-10-28T09:58:58.124Z,42.88
2022-10-28T10:01:33.910Z,42.03
2022-10-28T10:04:01.399Z,42.06
2022-10-28T10:06:39.820Z,41.36
2022-10-28T10:09:12.075Z,41.43
2022-10-28T10:11:46.500Z,41.98
2022-10-28T10:14:21.152Z,41.93
2022-10-28T10:17:03.001Z,42.88
2022-10-28T10:19:58.645Z,40.88
2022-10-28T10:22:31.375Z,41.15
2022-10-28T10:24:58.316Z,41.52
2022-10-28T10:27:26.987Z,40.80
2022-10-28T10:29:55.522Z,40.48
2022-10-28T10:32:34.565Z,40.78
2022-10-28T10:35:28.019Z,40.83
2022-10-28T10:37:58.102Z,40.85
2022-10-28T10:40:26.619Z,40.25
2022-10-28T10:43:10.035Z,40.15
2022-10-28T10:45:40.712Z,38.38
2022-10-28T10:48:13.030Z,39.53
2022-10-28T10:50:40.586Z,40.02
2022-10-28T10:53:17.047Z,38.99
2022-10-28T10:55:50.713Z,38.73
2022-10-28T10:58:23.700Z,39.12
2022-10-28T11:00:54.042Z,38.70
2022-10-28T11:04:00.286Z,37.93
2022-10-28T11:06:32.439Z,38.40
2022-10-28T11:09:02.771Z,37.21
2022-10-28T11:11:39.911Z,35.81
2022-10-28T11:14:31.557Z,35.80
2022-10-28T11:17:00.513Z,36.24
2022-10-28T11:19:37.922Z,37.10
2022-10-28T11:22:13.348Z,37.82
2022-10-28T11:25:08.068Z,37.78
2022-10-28T11:27:57.613Z,36.80
2022-10-28T11:30:55.975Z,36.88
2022-10-28T11:33:48.211Z,36.86
2022-10-28T11:36:33.686Z,37.27
2022-10-28T11:39:06.500Z,37.49
2022-10-28T11:41:39.030Z,36.81
2022-10-28T11:44:19.029Z,36.65
2022-10-28T11:47:02.423Z,35.79
2022-10-28T11:49:50.077Z,36.86
2022-10-28T11:52:25.879Z,36.07
2022-10-28T11:54:55.528Z,35.35
2022-10-28T11:57:57.012Z,35.81
2022-10-28T12:00:44.452Z,35.37
2022-10-28T12:03:55.316Z,35.01
2022-10-28T12:06:55.835Z,35.35
2022-10-28T12:09:28.821Z,33.84
2022-10-28T12:11:58.093Z,33.52
2022-10-28T12:14:36.875Z,33.62
2022-10-28T12:17:31.498Z,34.06
2022-10-28T12:20:17.088Z,32.29
2022-10-28T12:22:51.641Z,33.95
2022-10-28T12:25:24.727Z,33.96
2022-10-28T12:27:55.688Z,33.52
2022-10-28T12:30:27.831Z,33.66
2022-10-28T12:33:00.439Z,34.17
2022-10-28T12:35:40.024Z,34.19
2022-10-28T12:38:11.289Z,33.90
2022-10-28T12:40:50.754Z,34.15
2022-10-28T12:43:30.049Z,33.24
2022-10-28T12:45:57.838Z,33.52
2022-10-28T12:48:29.863Z,33.10
2022-10-28T12:51:04.262Z,32.48
2022-10-28T12:53:44.185Z,31.90
2022-10-28T12:56:40.488Z,31.38
2022-10-28T12:59:17.417Z,31.71
2022-10-28T13:01:47.516Z,31.84
2022-10-28T13:04:14.769Z,31.70
2022-10-28T13:06:53.286Z,31.49
2022-10-28T13:09:25.894Z,31.54
2022-10-28T13:12:40.237Z,32.15
2022-10-28T13:15:12.471Z,32.65
2022-10-28T13:18:01.139Z,33.38
2022-10-28T13:20:42.942Z,33.72
2022-10-28T13:23:24.296Z,33.37
2022-10-28T13:26:15.901Z,33.75
2022-10-28T13:28:48.995Z,34.28
2022-10-28T13:31:16.382Z,34.46
2022-10-28T13:34:01.508Z,34.66
2022-10-28T13:36:34.557Z,34.63
2022-10-28T13:39:04.329Z,34.87
2022-10-28T13:41:39.115Z,34.67
2022-10-28T13:44:09.575Z,35.12
2022-10-28T13:47:24.607Z,35.23
2022-10-28T13:50:06.525Z,35.12
2022-10-28T13:52:36.715Z,35.37
2022-10-28T13:55:25.459Z,34.94
2022-10-28T13:58:00.306Z,34.57
2022-10-28T14:03:01.823Z,34.85
2022-10-28T14:05:37.958Z,34.65
2022-10-28T14:08:19.555Z,34.86
2022-10-28T14:11:03.351Z,34.98
2022-10-28T14:14:01.855Z,35.38
2022-10-28T14:16:44.919Z,34.96
2022-10-28T14:19:11.646Z,35.43
2022-10-28T14:21:47.930Z,35.77
2022-10-28T14:24:32.241Z,35.99
2022-10-28T14:27:07.788Z,35.87
2022-10-28T14:29:48.746Z,36.16
2022-10-28T14:32:33.916Z,36.39
2022-10-28T14:35:12.766Z,36.63
2022-10-28T14:37:48.724Z,36.84
2022-10-28T14:40:35.227Z,36.77
2022-10-28T14:43:10.960Z,36.84
2022-10-28T14:45:57.761Z,37.07
2022-10-28T14:48:40.591Z,36.75
2022-10-28T14:51:13.776Z,36.24
2022-10-28T14:53:43.516Z,36.05
2022-10-28T14:56:20.487Z,36.24
2022-10-28T14:58:47.723Z,35.97
2022-10-28T15:01:17.741Z,35.92
2022-10-28T15:03:51.074Z,35.66
2022-10-28T15:06:26.664Z,35.67
2022-10-28T15:08:54.959Z,35.43
2022-10-28T15:11:22.461Z,35.87
2022-10-28T15:13:53.579Z,35.62
2022-10-28T15:16:22.638Z,35.85
2022-10-28T15:18:52.581Z,36.22
2022-10-28T15:21:22.277Z,36.54
2022-10-28T15:24:01.994Z,36.31
2022-10-28T15:26:28.856Z,36.13
2022-10-28T15:28:55.717Z,36.44
2022-10-28T15:31:22.641Z,36.37
2022-10-28T15:33:49.444Z,36.63
2022-10-28T15:36:22.290Z,36.71
2022-10-28T15:38:50.745Z,36.62
2022-10-28T15:41:23.640Z,36.62
2022-10-28T15:43:59.695Z,36.79
2022-10-28T15:46:27.268Z,37.05
2022-10-28T15:48:56.388Z,37.75
2022-10-28T15:51:23.675Z,38.12
2022-10-28T15:54:19.215Z,38.33
2022-10-28T15:56:57.573Z,38.35
2022-10-28T15:59:25.802Z,38.15
2022-10-28T16:01:53.120Z,38.05
2022-10-28T16:04:22.731Z,38.27
2022-10-28T16:06:55.749Z,39.33
2022-10-28T16:09:33.348Z,39.86
2022-10-28T16:12:14.328Z,40.46
2022-10-28T16:14:43.851Z,41.58
2022-10-28T16:17:23.424Z,41.57
2022-10-28T16:20:01.399Z,41.91
2022-10-28T16:22:30.222Z,42.03
2022-10-28T16:24:57.237Z,41.78
2022-10-28T16:27:26.788Z,42.53
2022-10-28T16:29:53.924Z,42.71
2022-10-28T16:32:28.179Z,42.80
2022-10-28T16:34:56.501Z,43.89
2022-10-28T16:37:28.379Z,43.14
2022-10-28T16:39:55.476Z,43.55
2022-10-28T16:42:22.979Z,43.27
2022-10-28T16:44:50.421Z,44.59
2022-10-28T16:47:19.934Z,45.09
2022-10-28T16:49:48.239Z,44.88
2022-10-28T16:52:19.332Z,44.72
2022-10-28T16:54:47.108Z,45.10
2022-10-28T16:57:14.072Z,45.40
2022-10-28T16:59:40.900Z,45.39
2022-10-28T17:02:20.043Z,45.75
2022-10-28T17:04:46.880Z,45.42
2022-10-28T17:07:13.674Z,45.33
2022-10-28T17:09:40.870Z,46.13
2022-10-28T17:12:12.215Z,46.12
2022-10-28T17:14:38.959Z,46.76
2022-10-28T17:17:05.649Z,46.62
2022-10-28T17:19:32.428Z,46.57
2022-10-28T17:21:59.119Z,47.10
2022-10-28T17:24:25.854Z,47.85
2022-10-28T17:26:52.812Z,47.85
2022-10-28T17:29:19.564Z,47.85
2022-10-28T17:31:46.310Z,48.38
2022-10-28T17:34:13.131Z,48.71
2022-10-28T17:36:39.817Z,48.88
2022-10-28T17:39:06.729Z,48.73
2022-10-28T17:41:33.473Z,49.48
2022-10-28T17:44:00.221Z,49.50
2022-10-28T17:46:28.497Z,49.63
2022-10-28T17:48:55.290Z,49.47
2022-10-28T17:51:22.185Z,49.31
2022-10-28T17:53:55.835Z,49.43
2022-10-28T17:56:22.627Z,48.86
2022-10-28T17:58:52.647Z,48.55
2022-10-28T18:01:19.642Z,48.95
2022-10-28T18:03:53.515Z,49.49
2022-10-28T18:06:20.314Z,49.67
2022-10-28T18:08:47.149Z,48.99
2022-10-28T18:11:15.936Z,49.86
2022-10-28T18:13:46.490Z,48.86
2022-10-28T18:16:19.901Z,49.72
2022-10-28T18:18:47.012Z,49.57
2022-10-28T18:21:16.725Z,49.72
2022-10-28T18:23:43.802Z,49.48
2022-10-28T18:26:13.560Z,49.50
2022-10-28T18:28:41.726Z,49.72
2022-10-28T18:31:14.787Z,49.61
2022-10-28T18:33:42.669Z,50.06
2022-10-28T18:36:16.669Z,50.23
2022-10-28T18:38:43.748Z,50.54
2022-10-28T18:41:15.932Z,50.32
2022-10-28T18:43:43.341Z,50.63
2022-10-28T18:46:10.799Z,50.12
2022-10-28T18:48:37.908Z,50.62
2022-10-28T18:51:07.517Z,50.34
2022-10-28T18:53:41.979Z,50.22
2022-10-28T18:56:12.728Z,50.23
2022-10-28T18:58:39.789Z,49.76
2022-10-28T19:01:11.537Z,49.76
2022-10-28T19:03:39.164Z,50.34
2022-10-28T19:06:12.213Z,50.60
2022-10-28T19:08:39.833Z,50.52
2022-10-28T19:11:07.780Z,50.54
2022-10-28T19:13:36.282Z,49.96
2022-10-28T19:16:04.058Z,50.41
2022-10-28T19:18:31.133Z,50.57
2022-10-28T19:21:27.988Z,50.32
2022-10-28T19:23:55.082Z,50.59
2022-10-28T19:26:22.596Z,51.08
2022-10-28T19:28:50.571Z,49.82
2022-10-28T19:31:20.228Z,50.01
2022-10-28T19:33:47.376Z,49.99
2022-10-28T19:36:21.480Z,50.51
2022-10-28T19:38:49.568Z,50.31
2022-10-28T19:41:18.815Z,50.69
2022-10-28T19:43:46.154Z,51.48
2022-10-28T19:46:18.078Z,50.80
2022-10-28T19:48:47.524Z,50.91
2022-10-28T19:51:16.486Z,51.65
2022-10-28T19:53:50.822Z,51.38
2022-10-28T19:56:18.206Z,51.22
2022-10-28T19:58:46.422Z,51.91
2022-10-28T20:01:14.345Z,52.33
2022-10-28T20:03:45.085Z,52.43
2022-10-28T20:06:15.383Z,52.53
2022-10-28T20:08:44.138Z,53.17
2022-10-28T20:11:14.177Z,53.14
2022-10-28T20:13:41.409Z,53.28
2022-10-28T20:16:11.518Z,52.79
2022-10-28T20:18:38.989Z,53.52
2022-10-28T20:21:15.843Z,54.39
2022-10-28T20:23:44.192Z,53.70
2022-10-28T20:26:12.686Z,53.66
2022-10-28T20:28:40.176Z,54.09
2022-10-28T20:31:11.236Z,54.40
2022-10-28T20:33:40.320Z,55.15
2022-10-28T20:36:21.054Z,54.61
2022-10-28T20:38:48.050Z,55.14
2022-10-28T20:41:14.853Z,55.50
2022-10-28T20:43:41.731Z,55.62
2022-10-28T20:46:09.280Z,55.29
2022-10-28T20:48:36.066Z,55.66
2022-10-28T20:51:03.307Z,55.54
2022-10-28T20:53:37.576Z,55.52
2022-10-28T20:56:04.923Z,55.63
2022-10-28T20:58:33.800Z,55.29
2022-10-28T21:01:08.919Z,55.97
2022-10-28T21:03:35.681Z,56.12
2022-10-28T21:06:02.755Z,55.31
2022-10-28T21:08:29.983Z,55.27
2022-10-28T21:10:56.754Z,54.31
2022-10-28T21:13:23.558Z,55.04
2022-10-28T21:15:56.336Z,54.93
2022-10-28T21:18:24.996Z,55.72
2022-10-28T21:20:58.804Z,55.25
2022-10-28T21:23:26.888Z,54.29
2022-10-28T21:25:59.172Z,54.39
2022-10-28T21:28:26.764Z,54.51
2022-10-28T21:31:09.848Z,55.03
2022-10-28T21:33:38.057Z,55.52
2022-10-28T21:36:08.916Z,56.04
2022-10-28T21:38:36.321Z,56.44
2022-10-28T21:41:15.017Z,57.36
2022-10-28T21:43:43.972Z,57.80
2022-10-28T21:46:11.598Z,57.70
2022-10-28T21:48:38.531Z,58.10
2022-10-28T21:51:11.640Z,56.85
2022-10-28T21:53:43.331Z,56.92
2022-10-28T21:56:17.624Z,57.23
2022-10-28T21:58:46.668Z,57.47
2022-10-28T22:01:16.921Z,57.03
2022-10-28T22:03:43.811Z,57.48
2022-10-28T22:06:11.105Z,57.30
2022-10-28T22:08:38.071Z,57.55
2022-10-28T22:11:11.646Z,57.51
2022-10-28T22:13:38.575Z,57.59
2022-10-28T22:16:11.102Z,57.94
2022-10-28T22:18:39.159Z,58.19
2022-10-28T22:21:08.235Z,57.99
2022-10-28T22:23:35.289Z,58.06
2022-10-28T22:26:03.301Z,58.16
2022-10-28T22:28:30.873Z,58.18
2022-10-28T22:31:03.099Z,58.18
2022-10-28T22:33:30.073Z,58.52
2022-10-28T22:36:02.333Z,58.56
2022-10-28T22:38:29.336Z,58.64
2022-10-28T22:41:12.566Z,58.58
2022-10-28T22:43:40.705Z,58.50
2022-10-28T22:46:07.677Z,58.83
2022-10-28T22:48:34.635Z,59.02
2022-10-28T22:51:01.670Z,59.19
2022-10-28T22:53:28.650Z,59.39
2022-10-28T22:55:56.553Z,59.49
2022-10-28T22:58:25.164Z,59.66
2022-10-28T23:00:51.950Z,59.95
2022-10-28T23:03:18.786Z,60.41
2022-10-28T23:05:45.711Z,60.59
2022-10-28T23:08:15.837Z,60.77
2022-10-28T23:10:42.774Z,59.73
2022-10-28T23:13:13.214Z,59.42
2022-10-28T23:15:39.983Z,59.70
2022-10-28T23:18:06.832Z,60.10
2022-10-28T23:20:35.608Z,61.03
2022-10-28T23:23:02.308Z,61.33
2022-10-28T23:25:29.270Z,61.68
2022-10-28T23:27:57.072Z,61.91
2022-10-28T23:30:24.174Z,61.91
2022-10-28T23:32:50.988Z,62.54
2022-10-28T23:35:17.932Z,62.54
2022-10-28T23:37:44.719Z,62.14
2022-10-28T23:40:11.864Z,62.74
2022-10-28T23:42:38.776Z,62.55
2022-10-28T23:45:06.265Z,62.60
2022-10-28T23:47:33.108Z,62.12
2022-10-28T23:49:59.865Z,61.83
2022-10-28T23:52:26.692Z,61.73
2022-10-28T23:54:53.420Z,61.55
2022-10-28T23:57:20.282Z,61.05
2022-10-28T23:59:47.043Z,61.85
